createdAt,value
2023-05-03T00:08:40.891Z,99260.13
2023-05-03T00:18:49.354Z,99253.97
2023-05-03T00:28:53.438Z,99253.58
2023-05-03T00:38:56.970Z,99252.00
2023-05-03T00:49:00.863Z,99250.48
2023-05-03T00:59:09.423Z,99249.23
2023-05-03T01:09:14.914Z,99243.84
2023-05-03T01:19:28.655Z,99248.88
2023-05-03T01:29:32.365Z,99254.54
2023-05-03T01:39:37.085Z,99266.44
2023-05-03T01:49:40.904Z,99266.80
2023-05-03T01:59:44.617Z,99270.15
2023-05-03T02:09:47.940Z,99275.23
2023-05-03T02:19:55.613Z,99282.21
2023-05-03T02:29:59.086Z,99282.86
2023-05-03T02:40:02.569Z,99283.41
2023-05-03T02:50:07.407Z,99289.35
2023-05-03T03:00:13.015Z,99302.53
2023-05-03T03:10:20.326Z,99316.69
2023-05-03T03:20:23.962Z,99317.37
2023-05-03T03:30:27.561Z,99320.91
2023-05-03T03:40:31.691Z,99327.11
2023-05-03T03:50:35.290Z,99327.90
2023-05-03T04:00:39.562Z,99335.58
2023-05-03T04:10:43.471Z,99360.33
2023-05-03T04:20:47.040Z,99367.36
2023-05-03T04:30:51.265Z,99376.02
2023-05-03T04:40:54.821Z,99384.34
2023-05-03T04:50:58.792Z,99385.80
2023-05-03T05:01:03.573Z,99393.56
2023-05-03T05:11:07.712Z,99388.16
2023-05-03T05:21:14.016Z,99398.77
2023-05-03T05:31:17.992Z,99404.78
2023-05-03T05:41:21.767Z,99412.45
2023-05-03T05:51:30.681Z,99424.36
2023-05-03T06:01:34.384Z,99437.24
2023-05-03T06:11:38.896Z,99444.79
2023-05-03T06:21:42.893Z,99458.62
2023-05-03T06:31:46.487Z,99468.52
2023-05-03T06:41:50.346Z,99462.94
2023-05-03T06:51:54.032Z,99470.77
2023-05-03T07:01:58.038Z,99481.64
2023-05-03T07:12:01.995Z,99495.43
2023-05-03T07:22:17.416Z,99499.29
2023-05-03T07:32:24.413Z,99503.62
2023-05-03T07:42:28.101Z,99508.58
2023-05-03T07:52:32.017Z,99516.85
2023-05-03T08:02:35.653Z,99514.64
2023-05-03T08:12:39.842Z,99513.02
2023-05-03T08:22:46.266Z,99506.64
2023-05-03T08:32:50.968Z,99508.55
2023-05-03T08:42:55.750Z,99514.23
2023-05-03T08:53:00.232Z,99525.19
2023-05-03T09:13:09.177Z,99548.16
2023-05-03T09:23:13.009Z,99551.95
2023-05-03T09:33:28.589Z,99557.19
2023-05-03T09:43:33.588Z,99557.92
2023-05-03T09:53:38.739Z,99565.45
2023-05-03T10:03:44.216Z,99567.21
2023-05-03T10:13:48.007Z,99557.83
2023-05-03T10:24:11.656Z,99555.70
2023-05-03T10:34:21.115Z,99553.70
2023-05-03T10:44:27.756Z,99555.70
2023-05-03T10:54:31.425Z,99549.56
2023-05-03T11:04:35.463Z,99541.80
2023-05-03T11:14:39.220Z,99539.05
2023-05-03T11:24:42.809Z,99545.54
2023-05-03T11:34:46.687Z,99534.61
2023-05-03T11:44:50.941Z,99540.45
2023-05-03T11:54:56.864Z,99541.17
2023-05-03T12:05:01.911Z,99534.24
2023-05-03T12:15:08.088Z,99525.54
2023-05-03T12:25:15.245Z,99522.02
2023-05-03T12:35:20.351Z,99514.83
2023-05-03T12:45:28.350Z,99507.14
2023-05-03T12:55:33.473Z,99495.85
2023-05-03T13:05:38.102Z,99492.23
2023-05-03T13:15:43.134Z,99486.69
2023-05-03T13:25:46.931Z,99480.48
2023-05-03T13:35:50.574Z,99473.60
2023-05-03T13:46:00.354Z,99463.30
2023-05-03T13:56:04.133Z,99463.92
2023-05-03T14:06:07.746Z,99462.79
2023-05-03T14:16:17.558Z,99465.77
2023-05-03T14:26:26.277Z,99459.98
2023-05-03T14:36:34.261Z,99455.99
2023-05-03T14:46:37.909Z,99448.20
2023-05-03T14:56:42.106Z,99452.63
2023-05-03T15:06:46.013Z,99462.96
2023-05-03T15:16:49.820Z,99457.26
2023-05-03T15:26:53.831Z,99467.28
2023-05-03T15:36:57.554Z,99471.11
2023-05-03T15:47:00.881Z,99478.13
2023-05-03T15:57:05.305Z,99476.07
2023-05-03T16:07:12.377Z,99479.59
2023-05-03T16:17:19.406Z,99476.27
2023-05-03T16:27:22.960Z,99474.71
2023-05-03T16:37:26.987Z,99475.85
2023-05-03T16:47:32.871Z,99481.98
2023-05-03T16:57:40.596Z,99485.45
2023-05-03T17:07:47.463Z,99485.66
2023-05-03T17:17:51.087Z,99490.56
2023-05-03T17:27:55.200Z,99492.38
2023-05-03T17:37:59.677Z,99494.77
2023-05-03T17:48:06.279Z,99496.48
2023-05-03T17:58:10.975Z,99502.94
2023-05-03T18:08:14.952Z,99511.03
2023-05-03T18:18:22.783Z,99517.03
2023-05-03T18:28:27.091Z,99525.95
2023-05-03T18:38:30.886Z,99529.21
2023-05-03T18:48:35.011Z,99543.17
2023-05-03T18:58:38.770Z,99545.27
2023-05-03T19:08:43.176Z,99550.25
2023-05-03T19:18:47.622Z,99547.63
2023-05-03T19:28:51.123Z,99552.57
2023-05-03T19:38:54.973Z,99557.16
2023-05-03T19:48:58.989Z,99556.32
2023-05-03T19:59:06.503Z,99555.88
2023-05-03T20:09:10.735Z,99552.23
2023-05-03T20:19:14.527Z,99549.95
2023-05-03T20:29:18.552Z,99551.19
2023-05-03T20:39:22.151Z,99549.80
2023-05-03T20:49:26.335Z,99546.51
2023-05-03T20:59:30.458Z,99540.57
2023-05-03T21:09:58.573Z,99542.45
2023-05-03T21:20:02.705Z,99539.42
2023-05-03T21:30:19.940Z,99537.40
2023-05-03T21:40:23.422Z,99537.30
2023-05-03T21:50:27.088Z,99542.89
2023-05-03T22:00:31.312Z,99542.90
2023-05-03T22:10:34.861Z,99538.88
2023-05-03T22:20:38.471Z,99539.60
2023-05-03T22:30:42.144Z,99540.38
2023-05-03T22:40:45.957Z,99540.20
2023-05-03T22:50:53.376Z,99541.23
2023-05-03T23:00:57.823Z,99534.59
2023-05-03T23:11:01.396Z,99528.41
2023-05-03T23:21:05.442Z,99528.63
2023-05-03T23:31:09.006Z,99524.83
2023-05-03T23:41:13.115Z,99522.30
2023-05-03T23:51:16.790Z,99519.33
